Time;durP1;ratioP1;P1;durP2;ratioP2;P2;SDS_P1;SDS_P2;PMS_P1;PMS_P2;Temp;Humidity;BMP_temperature;BMP_pressure;BME280_temperature;BME280_humidity;BME280_pressure;Samples;Min_cycle;Max_cycle;Signal;HPM_P1;HPM_P2
2022/12/02 09:41:54;;;;;;;29.70;10.33;;;4.30;99.90;;;;;;4904447;23;20253;-73
2022/12/02 09:44:20;;;;;;;30.97;11.10;;;4.20;99.90;;;;;;4898577;29;20210;-74
2022/12/02 09:46:47;;;;;;;23.43;8.27;;;4.40;99.90;;;;;;4900271;29;20717;-72
2022/12/02 09:49:14;;;;;;;26.93;8.90;;;4.40;99.90;;;;;;4899417;29;20226;-72
2022/12/02 09:51:41;;;;;;;26.60;9.17;;;4.30;99.90;;;;;;4898710;29;20662;-72
2022/12/02 09:54:09;;;;;;;26.30;9.10;;;4.50;99.90;;;;;;4892727;29;20203;-72
2022/12/02 09:56:36;;;;;;;29.93;9.57;;;4.50;99.90;;;;;;4888481;29;20210;-73
2022/12/02 09:59:13;;;;;;;30.90;10.83;;;4.40;99.90;;;;;;4889386;29;20202;-73
2022/12/02 10:01:42;;;;;;;25.67;8.77;;;4.40;99.90;;;;;;4888915;29;20203;-72
2022/12/02 10:04:10;;;;;;;26.33;9.03;;;4.40;99.90;;;;;;4888462;29;20211;-72
2022/12/02 10:06:37;;;;;;;28.13;9.50;;;4.50;99.90;;;;;;4889755;29;20562;-72
2022/12/02 10:09:04;;;;;;;24.30;8.53;;;4.50;99.90;;;;;;4887873;29;20294;-72
2022/12/02 10:11:33;;;;;;;27.83;9.77;;;4.30;99.90;;;;;;4888970;29;20293;-72
2022/12/02 10:14:01;;;;;;;24.77;8.47;;;4.10;99.90;;;;;;4889805;29;20215;-72
2022/12/02 10:16:29;;;;;;;30.10;9.87;;;4.20;99.90;;;;;;4888331;29;20207;-73
2022/12/02 10:19:00;;;;;;;27.50;9.43;;;4.40;99.90;;;;;;4887910;29;20576;-73
2022/12/02 10:21:27;;;;;;;35.83;10.43;;;4.30;99.90;;;;;;4887865;29;20204;-73
2022/12/02 10:23:57;;;;;;;30.27;9.10;;;4.30;99.90;;;;;;4888040;29;20554;-73
2022/12/02 10:26:25;;;;;;;28.47;8.20;;;4.20;99.90;;;;;;4888925;29;20226;-72
2022/12/02 10:29:07;;;;;;;26.17;7.27;;;4.30;99.90;;;;;;4887965;29;20222;-72
2022/12/02 10:31:35;;;;;;;24.37;8.37;;;4.50;99.90;;;;;;4888564;29;20306;-73
2022/12/02 10:34:05;;;;;;;28.13;8.03;;;4.70;99.90;;;;;;4887104;29;20210;-73
2022/12/02 10:36:34;;;;;;;26.67;8.23;;;4.60;99.90;;;;;;4888375;29;20211;-73
2022/12/02 10:39:18;;;;;;;23.97;8.20;;;4.80;99.90;;;;;;4886792;29;20203;-72
2022/12/02 10:41:46;;;;;;;25.83;7.90;;;4.80;99.90;;;;;;4878539;29;20214;-73
2022/12/02 10:44:15;;;;;;;28.97;8.43;;;4.70;99.90;;;;;;4873331;29;20203;-73
2022/12/02 10:46:44;;;;;;;24.60;7.37;;;4.70;99.90;;;;;;4877509;29;20242;-72
2022/12/02 10:49:16;;;;;;;24.93;7.83;;;4.50;99.90;;;;;;4877706;29;20234;-73
2022/12/02 10:51:43;;;;;;;19.87;7.47;;;4.30;99.90;;;;;;4877342;29;20245;-73
2022/12/02 10:54:19;;;;;;;26.27;8.00;;;4.60;99.90;;;;;;4876509;29;20253;-73
2022/12/02 10:56:46;;;;;;;19.87;7.13;;;4.60;99.90;;;;;;4876123;29;20203;-74
2022/12/02 10:59:15;;;;;;;25.30;8.73;;;4.50;99.90;;;;;;4877310;29;20207;-73
2022/12/02 11:01:44;;;;;;;30.13;8.77;;;4.70;99.90;;;;;;4877189;29;20203;-74
2022/12/02 11:04:13;;;;;;;21.87;8.30;;;4.80;99.90;;;;;;4877629;29;20536;-74
2022/12/02 11:06:40;;;;;;;22.70;7.33;;;4.90;99.90;;;;;;4878679;29;20291;-73
2022/12/02 11:09:08;;;;;;;24.07;8.43;;;5.00;99.90;;;;;;4876659;29;20670;-74
2022/12/02 11:11:40;;;;;;;22.17;8.13;;;4.80;99.90;;;;;;4885953;29;20202;-74
2022/12/02 11:14:11;;;;;;;21.60;6.97;;;4.90;99.90;;;;;;4886293;29;20666;-73
2022/12/02 11:17:02;;;;;;;19.63;6.93;;;4.80;99.90;;;;;;4880282;29;20214;-74
2022/12/02 11:19:47;;;;;;;17.07;6.70;;;4.80;99.90;;;;;;4896385;29;20301;-74
2022/12/02 11:22:47;;;;;;;20.23;7.27;;;4.70;99.90;;;;;;4896287;29;20790;-73
2022/12/02 11:25:48;;;;;;;23.27;7.23;;;4.90;99.90;;;;;;4847844;29;20210;-72
2022/12/02 11:28:48;;;;;;;20.57;7.03;;;5.00;99.90;;;;;;4865426;29;20242;-72
2022/12/02 11:31:19;;;;;;;21.07;6.77;;;4.70;99.90;;;;;;4877574;29;20211;-71
2022/12/02 11:34:23;;;;;;;20.87;7.20;;;4.70;99.90;;;;;;4877814;29;20230;-73
2022/12/02 11:37:23;;;;;;;20.00;6.60;;;4.90;99.90;;;;;;4877385;29;20214;-72
2022/12/02 11:39:50;;;;;;;20.70;8.27;;;5.10;99.90;;;;;;4877798;29;20574;-71
2022/12/02 11:42:22;;;;;;;21.03;7.67;;;5.00;99.90;;;;;;4877220;29;20269;-72
2022/12/02 11:44:49;;;;;;;23.73;8.13;;;5.00;99.90;;;;;;4877800;29;20215;-72
2022/12/02 11:47:30;;;;;;;24.33;7.90;;;5.00;99.90;;;;;;4877313;29;20235;-72
2022/12/02 11:50:17;;;;;;;28.13;8.47;;;4.80;99.90;;;;;;4877378;29;20686;-73
2022/12/02 11:52:50;;;;;;;19.23;7.20;;;4.90;99.90;;;;;;4877522;29;20582;-73
2022/12/02 11:55:20;;;;;;;21.07;6.90;;;4.80;99.90;;;;;;4882456;29;20207;-73
2022/12/02 11:57:49;;;;;;;17.37;6.77;;;4.70;99.90;;;;;;4883755;29;20706;-72
2022/12/02 12:00:26;;;;;;;21.77;7.77;;;4.80;99.90;;;;;;4896849;29;20689;-74
2022/12/02 12:03:13;;;;;;;22.97;7.10;;;4.80;99.90;;;;;;4899149;29;20300;-72
2022/12/02 12:05:42;;;;;;;18.43;6.30;;;5.00;99.90;;;;;;4880014;29;20214;-71
2022/12/02 12:08:09;;;;;;;19.83;6.50;;;5.10;99.90;;;;;;4881555;29;20575;-72
2022/12/02 12:10:38;;;;;;;20.33;6.10;;;5.00;99.90;;;;;;4881734;29;20659;-71
2022/12/02 12:13:21;;;;;;;20.20;6.97;;;4.90;99.90;;;;;;4881262;29;20733;-73
2022/12/02 12:15:55;;;;;;;15.37;5.90;;;4.80;99.90;;;;;;4880643;29;20217;-72
2022/12/02 12:18:37;;;;;;;14.43;5.50;;;4.70;99.90;;;;;;4881121;29;20602;-73
2022/12/02 12:21:07;;;;;;;18.57;7.03;;;4.90;99.90;;;;;;4881756;29;20627;-73
2022/12/02 12:23:37;;;;;;;22.57;6.47;;;4.80;99.90;;;;;;4881947;29;20225;-71
2022/12/02 12:26:05;;;;;;;16.47;5.77;;;4.90;99.90;;;;;;4881511;29;20215;-73
2022/12/02 12:28:34;;;;;;;15.83;5.83;;;4.80;99.90;;;;;;4881479;29;20243;-71
2022/12/02 12:31:03;;;;;;;15.33;6.30;;;4.70;99.90;;;;;;4881046;29;20219;-72
2022/12/02 12:33:30;;;;;;;16.87;6.10;;;4.70;99.90;;;;;;4881504;29;20233;-72
2022/12/02 12:35:58;;;;;;;19.40;6.60;;;4.60;99.90;;;;;;4881680;29;20218;-72
2022/12/02 12:38:28;;;;;;;16.00;6.60;;;4.80;99.90;;;;;;4881497;29;20238;-71
2022/12/02 12:40:54;;;;;;;19.77;5.83;;;4.80;99.90;;;;;;4881267;29;20225;-72
2022/12/02 12:43:21;;;;;;;16.57;6.30;;;4.80;99.90;;;;;;4881487;29;20552;-72
2022/12/02 12:45:48;;;;;;;15.93;5.73;;;5.00;99.90;;;;;;4881581;29;20218;-72
2022/12/02 12:48:15;;;;;;;16.47;6.00;;;5.00;99.90;;;;;;4881059;29;20707;-72
2022/12/02 12:50:42;;;;;;;17.60;5.73;;;4.70;99.90;;;;;;4881365;29;20215;-73
2022/12/02 12:53:08;;;;;;;20.57;6.83;;;4.60;99.90;;;;;;4881195;29;20217;-73
2022/12/02 12:55:37;;;;;;;16.33;6.57;;;4.50;99.90;;;;;;4880753;29;20298;-72
2022/12/02 12:58:03;;;;;;;16.70;5.37;;;4.50;99.90;;;;;;4880703;29;20238;-75
2022/12/02 13:00:30;;;;;;;16.13;6.20;;;4.40;99.90;;;;;;4880992;29;20219;-74
2022/12/02 13:02:57;;;;;;;11.23;5.13;;;4.50;99.90;;;;;;4880628;29;20216;-73
2022/12/02 13:05:24;;;;;;;17.43;5.70;;;4.70;99.90;;;;;;4881444;29;20249;-73
2022/12/02 13:07:51;;;;;;;12.70;5.27;;;4.60;99.90;;;;;;4876716;29;20242;-71
2022/12/02 13:10:18;;;;;;;16.37;6.23;;;4.50;99.90;;;;;;4879641;29;20218;-70
2022/12/02 13:12:46;;;;;;;16.37;6.13;;;4.30;99.90;;;;;;4897451;29;20214;-73
2022/12/02 13:15:13;;;;;;;15.40;6.60;;;4.20;99.90;;;;;;4888357;29;20207;-72
2022/12/02 13:17:40;;;;;;;18.37;6.50;;;4.30;99.90;;;;;;4879082;29;20326;-71
2022/12/02 13:20:08;;;;;;;17.30;6.17;;;4.40;99.90;;;;;;4879420;29;20234;-74
2022/12/02 13:22:34;;;;;;;15.27;6.20;;;4.40;99.90;;;;;;4880640;29;20207;-70
2022/12/02 13:25:01;;;;;;;18.77;6.23;;;4.20;99.90;;;;;;4890443;29;20298;-70
2022/12/02 13:27:28;;;;;;;18.87;6.90;;;4.10;99.90;;;;;;4878797;29;20617;-74
2022/12/02 13:29:57;;;;;;;20.80;6.67;;;4.00;99.90;;;;;;4878627;29;20306;-73
2022/12/02 13:32:24;;;;;;;13.70;5.73;;;4.00;99.90;;;;;;4879261;29;20313;-72
2022/12/02 13:34:51;;;;;;;20.67;6.63;;;4.10;99.90;;;;;;4878915;29;20305;-73
2022/12/02 13:37:17;;;;;;;19.77;6.93;;;4.30;99.90;;;;;;4878290;29;20242;-71
2022/12/02 13:39:44;;;;;;;16.00;6.60;;;4.50;99.90;;;;;;4878649;29;20655;-73
2022/12/02 13:42:11;;;;;;;20.67;6.57;;;4.40;99.90;;;;;;4879967;29;20222;-71
2022/12/02 13:44:38;;;;;;;20.70;7.20;;;4.30;99.90;;;;;;4878414;29;20211;-73
2022/12/02 13:47:06;;;;;;;22.90;7.00;;;4.30;99.90;;;;;;4897668;29;20241;-74
2022/12/02 13:49:33;;;;;;;23.13;7.40;;;4.40;99.90;;;;;;4897969;29;20210;-72
2022/12/02 13:52:00;;;;;;;15.53;6.03;;;4.50;99.90;;;;;;4897219;29;20211;-73
2022/12/02 13:54:27;;;;;;;23.87;6.77;;;4.50;99.90;;;;;;4891024;29;20198;-72
2022/12/02 13:56:54;;;;;;;25.63;6.07;;;4.40;99.90;;;;;;4877982;29;20246;-73
2022/12/02 13:59:21;;;;;;;15.07;5.80;;;4.40;99.90;;;;;;4879516;29;20217;-73
2022/12/02 14:01:48;;;;;;;17.67;7.13;;;4.40;99.90;;;;;;4879953;29;20207;-73
2022/12/02 14:04:16;;;;;;;18.37;6.20;;;4.40;99.90;;;;;;4879810;29;20566;-73
2022/12/02 14:06:43;;;;;;;23.13;6.77;;;4.50;99.90;;;;;;4879949;29;20219;-72
2022/12/02 14:09:10;;;;;;;21.13;7.40;;;4.40;99.90;;;;;;4879881;29;20331;-73
2022/12/02 14:11:37;;;;;;;24.20;8.03;;;4.40;99.90;;;;;;4880040;29;20215;-73
2022/12/02 14:14:03;;;;;;;22.37;7.13;;;4.50;99.90;;;;;;4879715;29;20211;-73
2022/12/02 14:16:30;;;;;;;22.27;6.73;;;4.40;99.90;;;;;;4879774;29;20702;-73
2022/12/02 14:18:57;;;;;;;22.17;8.10;;;4.50;99.90;;;;;;4879654;29;20222;-73
2022/12/02 14:21:26;;;;;;;26.80;7.50;;;4.40;99.90;;;;;;4879936;29;20230;-73
2022/12/02 14:23:53;;;;;;;25.97;7.70;;;4.40;99.90;;;;;;4879767;29;20215;-73
2022/12/02 14:26:20;;;;;;;21.13;8.00;;;4.40;99.90;;;;;;4879286;29;20222;-73
2022/12/02 14:28:47;;;;;;;19.97;7.00;;;4.40;99.90;;;;;;4879319;29;20246;-73
2022/12/02 14:31:14;;;;;;;21.93;7.40;;;4.40;99.90;;;;;;4880379;29;20218;-73
2022/12/02 14:33:41;;;;;;;24.37;7.53;;;4.40;99.90;;;;;;4882439;29;20659;-73
2022/12/02 14:36:08;;;;;;;29.57;7.83;;;4.40;99.90;;;;;;4882361;29;20302;-71
2022/12/02 14:38:36;;;;;;;27.60;7.43;;;4.40;99.90;;;;;;4881002;29;20587;-72
2022/12/02 14:41:03;;;;;;;19.50;7.73;;;4.70;99.90;;;;;;4879633;29;20233;-74
2022/12/02 14:43:30;;;;;;;18.80;6.43;;;4.60;99.90;;;;;;4879395;29;20663;-74
2022/12/02 14:45:57;;;;;;;23.17;7.90;;;4.50;99.90;;;;;;4879516;29;20211;-73
2022/12/02 14:48:23;;;;;;;24.73;7.70;;;4.40;99.90;;;;;;4879677;29;20253;-73
2022/12/02 14:50:53;;;;;;;25.53;8.10;;;4.40;99.90;;;;;;4879427;29;20471;-72
2022/12/02 14:53:20;;;;;;;18.17;7.37;;;4.60;99.90;;;;;;4879073;29;20301;-72
2022/12/02 14:55:48;;;;;;;20.90;7.77;;;4.70;99.90;;;;;;4879190;29;20215;-72
2022/12/02 14:58:15;;;;;;;21.83;7.27;;;4.60;99.90;;;;;;4879259;29;20235;-72
2022/12/02 15:00:42;;;;;;;22.67;6.83;;;4.40;99.90;;;;;;4879306;29;20659;-72
2022/12/02 15:03:08;;;;;;;20.40;7.60;;;4.50;99.90;;;;;;4879461;29;20211;-73
2022/12/02 15:05:35;;;;;;;20.80;7.20;;;4.50;99.90;;;;;;4879190;29;20214;-73
2022/12/02 15:08:02;;;;;;;25.20;8.00;;;4.50;99.90;;;;;;4879113;29;20698;-73
2022/12/02 15:10:29;;;;;;;19.57;7.63;;;4.50;99.90;;;;;;4879291;29;20215;-73
2022/12/02 15:12:57;;;;;;;21.93;7.00;;;4.60;99.90;;;;;;4879006;29;20222;-73
2022/12/02 15:15:24;;;;;;;24.20;7.83;;;4.50;99.90;;;;;;4878989;29;20577;-73
2022/12/02 15:17:51;;;;;;;20.37;7.40;;;4.50;99.90;;;;;;4879157;29;20231;-73
2022/12/02 15:20:17;;;;;;;22.33;7.93;;;4.50;99.90;;;;;;4879125;29;20642;-73
2022/12/02 15:22:44;;;;;;;15.17;6.10;;;4.40;99.90;;;;;;4878977;29;20217;-73
2022/12/02 15:25:12;;;;;;;23.17;7.57;;;4.50;99.90;;;;;;4879144;29;20583;-73
2022/12/02 15:27:39;;;;;;;21.63;7.57;;;4.50;99.90;;;;;;4878933;29;20241;-72
2022/12/02 15:30:08;;;;;;;20.73;7.33;;;4.40;99.90;;;;;;4879207;29;20242;-73
2022/12/02 15:32:35;;;;;;;24.20;7.67;;;4.40;99.90;;;;;;4879218;29;20218;-72
2022/12/02 15:35:02;;;;;;;20.70;8.27;;;4.40;99.90;;;;;;4880817;29;20582;-72
2022/12/02 15:37:29;;;;;;;22.50;7.30;;;4.40;99.90;;;;;;4883451;29;20235;-72
2022/12/02 15:39:56;;;;;;;20.03;8.03;;;4.40;99.90;;;;;;4882885;29;20207;-72
2022/12/02 15:42:23;;;;;;;21.20;7.20;;;4.60;99.90;;;;;;4882397;29;20219;-72
2022/12/02 15:44:49;;;;;;;19.73;7.33;;;4.50;99.90;;;;;;4882688;29;20214;-72
2022/12/02 15:47:18;;;;;;;21.17;7.50;;;4.50;99.90;;;;;;4882419;29;20231;-71
2022/12/02 15:49:44;;;;;;;20.00;7.63;;;4.40;99.90;;;;;;4882478;29;20212;-72
2022/12/02 15:52:11;;;;;;;20.47;6.93;;;4.30;99.90;;;;;;4882286;29;20211;-72
2022/12/02 15:54:38;;;;;;;18.50;7.57;;;4.20;99.90;;;;;;4882560;29;20211;-72
2022/12/02 15:57:05;;;;;;;20.43;6.60;;;4.20;99.90;;;;;;4882129;29;20231;-72
2022/12/02 15:59:31;;;;;;;24.00;7.60;;;4.40;99.90;;;;;;4882370;29;20573;-73
2022/12/02 16:01:58;;;;;;;16.87;7.33;;;4.40;99.90;;;;;;4882296;29;20211;-72
2022/12/02 16:04:26;;;;;;;21.77;7.97;;;4.40;99.90;;;;;;4882279;29;20207;-72
2022/12/02 16:06:53;;;;;;;19.23;7.73;;;4.40;99.90;;;;;;4882207;29;20258;-72
2022/12/02 16:09:20;;;;;;;21.43;7.90;;;4.40;99.90;;;;;;4881977;29;20245;-71
2022/12/02 16:11:47;;;;;;;29.17;7.93;;;4.50;99.90;;;;;;4882026;29;20316;-72
2022/12/02 16:14:14;;;;;;;29.07;8.77;;;4.60;99.90;;;;;;4882397;29;20211;-72
2022/12/02 16:16:41;;;;;;;27.50;7.77;;;4.60;99.90;;;;;;4882088;29;20215;-72
2022/12/02 16:19:07;;;;;;;25.43;7.57;;;4.40;99.90;;;;;;4882291;29;20306;-72
2022/12/02 16:21:36;;;;;;;28.43;8.43;;;4.30;99.90;;;;;;4882159;29;20552;-72
2022/12/02 16:24:02;;;;;;;22.77;7.53;;;4.30;99.90;;;;;;4881885;29;20211;-73
2022/12/02 16:26:29;;;;;;;23.10;8.57;;;4.30;99.90;;;;;;4882076;29;20221;-72
2022/12/02 16:28:56;;;;;;;26.83;7.47;;;4.30;99.90;;;;;;4881607;29;20328;-72
2022/12/02 16:31:23;;;;;;;25.40;7.87;;;4.30;99.90;;;;;;4882137;29;20581;-72
2022/12/02 16:33:50;;;;;;;26.00;8.50;;;4.30;99.90;;;;;;4881830;29;20674;-72
2022/12/02 16:36:16;;;;;;;22.50;7.97;;;4.20;99.90;;;;;;4881712;29;20211;-71
2022/12/02 16:38:45;;;;;;;24.37;8.13;;;4.20;99.90;;;;;;4881447;29;20227;-72
2022/12/02 16:41:11;;;;;;;20.10;7.77;;;4.10;99.90;;;;;;4881876;29;20226;-71
2022/12/02 16:43:38;;;;;;;20.93;7.53;;;4.00;99.90;;;;;;4881844;29;20697;-72
2022/12/02 16:46:05;;;;;;;20.33;8.10;;;4.20;99.90;;;;;;4881486;29;20237;-72
2022/12/02 16:48:32;;;;;;;23.23;8.37;;;4.30;99.90;;;;;;4882126;29;20319;-73
2022/12/02 16:50:59;;;;;;;26.17;7.80;;;4.30;99.90;;;;;;4881601;29;20255;-71
2022/12/02 16:53:26;;;;;;;25.77;8.13;;;4.20;99.90;;;;;;4881498;29;20210;-73
2022/12/02 16:55:54;;;;;;;24.87;7.77;;;4.30;99.90;;;;;;4881545;29;20215;-72
2022/12/02 16:58:21;;;;;;;20.73;7.27;;;4.30;99.90;;;;;;4882085;29;20230;-73
2022/12/02 17:00:47;;;;;;;25.37;8.20;;;4.20;99.90;;;;;;4881942;29;20229;-72
2022/12/02 17:03:14;;;;;;;25.80;7.63;;;4.10;99.90;;;;;;4879773;29;20214;-73
2022/12/02 17:05:41;;;;;;;21.63;7.83;;;4.10;99.90;;;;;;4882223;29;20211;-73
2022/12/02 17:08:08;;;;;;;21.33;7.27;;;4.10;99.90;;;;;;4883405;29;20243;-73
2022/12/02 17:10:35;;;;;;;20.17;8.60;;;4.10;99.90;;;;;;4882492;29;20757;-73
2022/12/02 17:13:03;;;;;;;23.07;8.20;;;4.20;99.90;;;;;;4880342;29;20570;-73
2022/12/02 17:15:30;;;;;;;19.53;7.57;;;4.20;99.90;;;;;;4882149;29;20218;-73
2022/12/02 17:17:57;;;;;;;19.60;7.60;;;4.10;99.90;;;;;;4880229;29;20254;-73
2022/12/02 17:20:25;;;;;;;18.17;7.47;;;4.00;99.90;;;;;;4882039;29;20264;-73
2022/12/02 17:22:52;;;;;;;22.00;7.93;;;3.90;99.90;;;;;;4880394;29;20686;-73
2022/12/02 17:25:19;;;;;;;25.97;9.77;;;3.90;99.90;;;;;;4889152;29;20258;-72
2022/12/02 17:27:46;;;;;;;15.90;7.17;;;3.80;99.90;;;;;;4884711;29;20231;-73
2022/12/02 17:30:14;;;;;;;20.13;9.43;;;3.90;99.90;;;;;;4884500;29;20740;-73
2022/12/02 17:32:41;;;;;;;23.57;10.73;;;3.90;99.90;;;;;;4880053;29;20220;-72
2022/12/02 17:35:09;;;;;;;21.67;9.87;;;3.90;99.90;;;;;;4881571;29;20221;-72
2022/12/02 17:37:35;;;;;;;26.30;10.57;;;3.90;99.90;;;;;;4878553;29;20290;-72
2022/12/02 17:40:02;;;;;;;22.13;9.10;;;3.90;99.90;;;;;;4882871;29;20219;-73
2022/12/02 17:42:29;;;;;;;28.13;9.80;;;3.80;99.90;;;;;;4881869;29;20556;-73
2022/12/02 17:44:56;;;;;;;23.63;8.60;;;3.80;99.90;;;;;;4879684;29;20215;-73
2022/12/02 17:47:24;;;;;;;23.57;10.00;;;3.70;99.90;;;;;;4877346;29;20231;-73
2022/12/02 17:49:51;;;;;;;25.47;10.77;;;3.60;99.90;;;;;;4877361;29;20235;-73
2022/12/02 17:52:17;;;;;;;28.03;10.33;;;3.50;99.90;;;;;;4879153;29;20207;-72
2022/12/02 17:54:44;;;;;;;25.33;9.87;;;3.60;99.90;;;;;;4889241;29;20202;-73
2022/12/02 17:57:11;;;;;;;21.23;9.13;;;3.40;99.90;;;;;;4885917;29;20236;-73
2022/12/02 17:59:38;;;;;;;29.10;10.60;;;3.40;99.90;;;;;;4886341;29;20210;-73
2022/12/02 18:02:05;;;;;;;27.87;10.63;;;3.40;99.90;;;;;;4887368;29;20217;-73
2022/12/02 18:04:33;;;;;;;27.30;10.13;;;3.30;99.90;;;;;;4883053;29;20682;-73
2022/12/02 18:06:59;;;;;;;23.43;9.47;;;3.40;99.90;;;;;;4880656;29;20690;-72
2022/12/02 18:09:26;;;;;;;29.70;11.83;;;3.30;99.90;;;;;;4882442;29;20243;-72
2022/12/02 18:11:53;;;;;;;26.97;10.00;;;3.30;99.90;;;;;;4880618;29;20223;-72
2022/12/02 18:14:20;;;;;;;34.30;12.53;;;3.40;99.90;;;;;;4879281;29;20624;-73
2022/12/02 18:16:47;;;;;;;36.10;11.80;;;3.50;99.90;;;;;;4881946;29;20218;-73
2022/12/02 18:19:13;;;;;;;28.50;11.33;;;3.50;99.90;;;;;;4879247;29;20213;-73
2022/12/02 18:21:42;;;;;;;28.30;10.30;;;3.50;99.90;;;;;;4878091;29;20211;-73
2022/12/02 18:24:08;;;;;;;29.37;10.50;;;3.50;99.90;;;;;;4879936;29;20215;-73
2022/12/02 18:26:35;;;;;;;29.13;10.87;;;3.60;99.90;;;;;;4879797;29;20217;-75
2022/12/02 18:29:02;;;;;;;30.40;11.43;;;3.60;99.90;;;;;;4879964;29;20248;-73
2022/12/02 18:31:29;;;;;;;32.30;12.93;;;3.50;99.90;;;;;;4879844;29;20238;-73
2022/12/02 18:33:56;;;;;;;32.20;9.57;;;3.50;99.90;;;;;;4879948;29;20219;-73
2022/12/02 18:36:23;;;;;;;29.07;12.23;;;3.50;99.90;;;;;;4879845;29;20214;-73
2022/12/02 18:38:51;;;;;;;25.20;9.20;;;3.50;99.90;;;;;;4879549;29;20227;-72
2022/12/02 18:41:18;;;;;;;30.17;11.93;;;3.50;99.90;;;;;;4879468;29;20222;-72
2022/12/02 18:43:44;;;;;;;32.80;10.60;;;3.60;99.90;;;;;;4879399;29;20579;-73
2022/12/02 18:46:11;;;;;;;25.90;10.07;;;3.50;99.90;;;;;;4880037;29;20217;-73
2022/12/02 18:48:38;;;;;;;27.90;11.20;;;3.50;99.90;;;;;;4879655;29;20239;-73
2022/12/02 18:51:05;;;;;;;33.83;11.77;;;3.50;99.90;;;;;;4879466;29;20695;-71
2022/12/02 18:53:32;;;;;;;32.43;12.10;;;3.60;99.90;;;;;;4879422;29;20716;-73
2022/12/02 18:56:00;;;;;;;28.10;10.60;;;3.70;99.90;;;;;;4879263;29;20218;-72
2022/12/02 18:58:27;;;;;;;41.10;13.53;;;3.70;99.90;;;;;;4879275;29;20234;-72
2022/12/02 19:00:54;;;;;;;31.33;11.77;;;3.80;99.90;;;;;;4879510;29;20690;-71
2022/12/02 19:03:20;;;;;;;27.70;11.23;;;3.80;99.90;;;;;;4879378;29;20211;-72
2022/12/02 19:05:47;;;;;;;32.13;10.87;;;3.80;99.90;;;;;;4879537;29;20219;-72
2022/12/02 19:08:14;;;;;;;28.47;11.13;;;3.80;99.90;;;;;;4879609;29;20237;-72
2022/12/02 19:10:41;;;;;;;26.93;10.00;;;3.80;99.90;;;;;;4883102;29;20245;-72
2022/12/02 19:13:09;;;;;;;25.23;10.50;;;3.70;99.90;;;;;;4883310;29;20223;-73
2022/12/02 19:15:36;;;;;;;30.77;10.20;;;3.80;99.90;;;;;;4883106;29;20221;-73
2022/12/02 19:18:02;;;;;;;28.63;10.63;;;3.70;99.90;;;;;;4883235;29;20235;-73
2022/12/02 19:20:29;;;;;;;26.70;10.50;;;3.70;99.90;;;;;;4882988;29;20213;-73
2022/12/02 19:22:56;;;;;;;27.10;10.53;;;3.60;99.90;;;;;;4883149;29;20215;-73
2022/12/02 19:25:27;;;;;;;29.30;10.83;;;3.60;99.90;;;;;;4883011;29;20211;-73
2022/12/02 19:27:54;;;;;;;23.20;9.80;;;3.70;99.90;;;;;;4883099;29;20655;-72
2022/12/02 19:30:22;;;;;;;25.90;10.40;;;3.80;99.90;;;;;;4882841;29;20249;-73
2022/12/02 19:32:49;;;;;;;37.90;11.33;;;3.70;99.90;;;;;;4882752;29;20641;-73
2022/12/02 19:35:16;;;;;;;24.53;11.03;;;3.60;99.90;;;;;;4882744;29;20215;-73
2022/12/02 19:37:43;;;;;;;33.03;11.17;;;3.70;99.90;;;;;;4882611;29;20605;-73
2022/12/02 19:40:11;;;;;;;27.40;10.60;;;4.00;99.90;;;;;;4882677;29;20214;-73
2022/12/02 19:42:37;;;;;;;30.27;12.33;;;3.90;99.90;;;;;;4882331;29;20225;-73
2022/12/02 19:45:06;;;;;;;27.23;11.37;;;3.90;99.90;;;;;;4883002;29;20562;-73
2022/12/02 19:47:34;;;;;;;26.63;10.40;;;4.00;99.90;;;;;;4882772;29;20227;-73
2022/12/02 19:50:01;;;;;;;25.00;10.47;;;4.00;99.90;;;;;;4882533;29;20249;-73
2022/12/02 19:52:27;;;;;;;24.80;8.97;;;4.10;99.90;;;;;;4882624;29;20639;-73
2022/12/02 19:54:54;;;;;;;25.83;10.47;;;4.00;99.90;;;;;;4882790;29;20223;-72
2022/12/02 19:57:21;;;;;;;28.30;10.30;;;3.90;99.90;;;;;;4882395;29;20235;-73
2022/12/02 19:59:48;;;;;;;27.03;10.97;;;4.10;99.90;;;;;;4882335;29;20215;-73
2022/12/02 20:02:14;;;;;;;26.20;10.53;;;3.90;99.90;;;;;;4882496;29;20218;-72
2022/12/02 20:04:43;;;;;;;33.90;11.33;;;3.80;99.90;;;;;;4882410;29;20218;-72
2022/12/02 20:07:09;;;;;;;27.03;9.50;;;3.90;99.90;;;;;;4882178;29;20243;-72
2022/12/02 20:09:36;;;;;;;25.30;10.67;;;3.80;99.90;;;;;;4882210;29;20257;-72
2022/12/02 20:12:04;;;;;;;24.30;10.27;;;3.80;99.90;;;;;;4881868;29;20219;-74
2022/12/02 20:14:30;;;;;;;22.97;9.50;;;3.90;99.90;;;;;;4881423;29;20301;-72
2022/12/02 20:16:57;;;;;;;27.97;10.10;;;3.80;99.90;;;;;;4881358;29;20231;-72
2022/12/02 20:19:24;;;;;;;23.37;10.70;;;3.70;99.90;;;;;;4888387;29;20272;-72
2022/12/02 20:21:52;;;;;;;27.77;10.13;;;3.80;99.90;;;;;;4887958;29;20299;-72
2022/12/02 20:24:19;;;;;;;28.30;9.83;;;3.80;99.90;;;;;;4881971;29;20294;-72
2022/12/02 20:26:46;;;;;;;28.70;10.23;;;3.80;99.90;;;;;;4881138;29;20296;-73
2022/12/02 20:29:13;;;;;;;25.43;10.33;;;3.70;99.90;;;;;;4880926;29;20249;-73
2022/12/02 20:31:40;;;;;;;28.30;10.47;;;3.70;99.90;;;;;;4880877;29;20207;-72
2022/12/02 20:34:07;;;;;;;28.37;10.40;;;3.90;99.90;;;;;;4881244;29;20298;-71
2022/12/02 20:36:34;;;;;;;28.77;9.97;;;3.70;99.90;;;;;;4881560;29;20222;-73
2022/12/02 20:39:02;;;;;;;24.37;10.00;;;3.70;99.90;;;;;;4881295;29;20211;-72
2022/12/02 20:41:29;;;;;;;28.00;11.07;;;3.60;99.90;;;;;;4881084;29;20314;-73
2022/12/02 20:43:56;;;;;;;23.20;9.43;;;3.60;99.90;;;;;;4881431;29;20215;-73
2022/12/02 20:46:23;;;;;;;26.53;9.50;;;3.70;99.90;;;;;;4881314;29;20233;-73
2022/12/02 20:48:50;;;;;;;25.73;10.27;;;3.70;99.90;;;;;;4880860;29;20318;-73
2022/12/02 20:51:17;;;;;;;21.43;9.50;;;3.80;99.90;;;;;;4881132;29;20250;-71
2022/12/02 20:53:44;;;;;;;20.67;7.47;;;3.70;99.90;;;;;;4881207;29;20663;-72
2022/12/02 20:56:12;;;;;;;20.77;9.00;;;3.60;99.90;;;;;;4883340;29;20222;-74
2022/12/02 20:58:39;;;;;;;22.60;8.23;;;3.70;99.90;;;;;;4882967;29;20729;-71
2022/12/02 21:01:06;;;;;;;25.07;9.60;;;3.70;99.90;;;;;;4882590;29;20215;-71
2022/12/02 21:03:33;;;;;;;25.27;9.63;;;3.60;99.90;;;;;;4882141;29;20320;-72
2022/12/02 21:06:00;;;;;;;24.67;10.27;;;3.70;99.90;;;;;;4882470;29;20217;-72
2022/12/02 21:08:27;;;;;;;25.40;10.03;;;3.60;99.90;;;;;;4881446;29;20235;-72
2022/12/02 21:10:54;;;;;;;26.60;9.87;;;3.60;99.90;;;;;;4881103;29;20633;-73
2022/12/02 21:13:22;;;;;;;19.27;9.20;;;3.60;99.90;;;;;;4881238;29;20211;-73
2022/12/02 21:15:49;;;;;;;27.73;9.97;;;3.70;99.90;;;;;;4880880;29;20246;-72
2022/12/02 21:18:16;;;;;;;20.17;9.37;;;3.60;99.90;;;;;;4881222;29;20321;-72
2022/12/02 21:20:43;;;;;;;22.47;8.70;;;3.60;99.90;;;;;;4880960;29;20226;-72
2022/12/02 21:23:10;;;;;;;27.90;9.17;;;3.60;99.90;;;;;;4881132;29;20309;-73
2022/12/02 21:25:37;;;;;;;25.53;9.97;;;3.30;99.90;;;;;;4880678;29;20579;-72
2022/12/02 21:28:04;;;;;;;23.23;9.07;;;3.60;99.90;;;;;;4880772;29;20234;-72
2022/12/02 21:30:33;;;;;;;22.30;9.30;;;3.60;99.90;;;;;;4880511;29;20262;-72
2022/12/02 21:33:00;;;;;;;22.43;9.00;;;3.60;99.90;;;;;;4880325;29;20250;-73
2022/12/02 21:35:27;;;;;;;20.87;8.33;;;3.70;99.90;;;;;;4880533;29;20310;-72
2022/12/02 21:37:54;;;;;;;22.17;9.43;;;3.80;99.90;;;;;;4880912;29;20706;-72
2022/12/02 21:40:21;;;;;;;23.60;10.13;;;3.70;99.90;;;;;;4880399;29;20211;-72
2022/12/02 21:42:48;;;;;;;28.80;11.13;;;3.50;99.90;;;;;;4879875;29;20226;-72
2022/12/02 21:45:14;;;;;;;23.33;9.50;;;3.50;99.90;;;;;;4880366;29;20221;-72
2022/12/02 21:47:43;;;;;;;21.20;8.50;;;3.50;99.90;;;;;;4880252;29;20227;-73
2022/12/02 21:50:11;;;;;;;20.07;8.43;;;3.60;99.90;;;;;;4880357;29;20241;-72
2022/12/02 21:52:38;;;;;;;21.57;9.53;;;3.50;99.90;;;;;;4880167;29;20297;-72
2022/12/02 21:55:05;;;;;;;23.20;9.60;;;3.50;99.90;;;;;;4880227;29;20226;-72
2022/12/02 21:57:32;;;;;;;27.60;10.10;;;3.40;99.90;;;;;;4879801;29;20313;-72
2022/12/02 21:59:59;;;;;;;21.43;8.53;;;3.30;99.90;;;;;;4879883;29;20667;-72
2022/12/02 22:02:26;;;;;;;21.93;9.03;;;3.30;99.90;;;;;;4880539;29;20604;-73
2022/12/02 22:04:54;;;;;;;25.37;9.60;;;3.20;99.90;;;;;;4880056;29;20713;-73
2022/12/02 22:07:40;;;;;;;19.73;8.43;;;3.30;99.90;;;;;;4880020;29;20234;-73
2022/12/02 22:10:09;;;;;;;17.30;8.13;;;3.50;99.90;;;;;;4881734;29;20246;-73
2022/12/02 22:12:36;;;;;;;22.57;8.67;;;3.30;99.90;;;;;;4880347;29;20211;-73
2022/12/02 22:15:04;;;;;;;19.30;9.20;;;3.20;99.90;;;;;;4881245;29;20238;-72
2022/12/02 22:17:31;;;;;;;17.60;8.00;;;3.10;99.90;;;;;;4880554;29;20238;-73
2022/12/02 22:19:59;;;;;;;18.50;7.57;;;3.30;99.90;;;;;;4880590;29;20226;-73
2022/12/02 22:22:26;;;;;;;19.50;8.73;;;3.40;99.90;;;;;;4880493;29;20211;-73
2022/12/02 22:24:53;;;;;;;21.27;9.23;;;3.30;99.90;;;;;;4880654;29;20217;-72
2022/12/02 22:27:19;;;;;;;23.43;9.13;;;3.30;99.90;;;;;;4880505;29;20231;-73
2022/12/02 22:29:46;;;;;;;21.70;9.43;;;3.30;99.90;;;;;;4880662;29;20682;-73
2022/12/02 22:32:13;;;;;;;19.10;7.53;;;3.30;99.90;;;;;;4879778;29;20215;-73